Shell Lake, Canada
Current Conditions -  °F | °C
As of 6:00 AM on Tuesday 21 Oct 2014 (Local Time) from CYPA Reporting Station
Clear Clear  
Wind Chill: 28°   Ceiling: Unl
Heat Index: 34°   Visibility: 15mi
Dew Point: 34°   Wind: 7mph
Humidity: 100%   Direction: 70°ENE
Pressure: 29.57"   Gusts: NA
Location:  53.3°N, 107.05°W
Report Text: CYPA 211200Z 07006KT 360V080 15SM SKC 01/01 A2957 RMK SLP027
Loading
Personal Weather Stations






























Interactive Weather Map
Tropical Storm Tracking
New forecast layout! Learn more

10-Day Weather Forecast

Advertisements
Track Severe Weather on mobile